Terminal Aerodrome Forecast
Issued by NWS

Home | Current Version | Previous Version | Text Only | Print | Product List | Glossary On
Versions: 1 2 3 4 5 6 7 8 9 10 11 12 13 14 15 16 17 18 19 20
000
FTUS43 KLSX 221100
TAFSUS
TAF
KSUS 221120Z 2212/2312 VRB03KT P6SM SCT250
     FM221400 24007KT P6SM FEW050
     FM230100 VRB04KT P6SM FEW050
     FM230900 24005KT P6SM SCT060=

USA.gov is the U.S. government's official web portal to all federal, state and local government web resources and services.